createdAt,value
2023-02-19T00:00:14.318Z,0.00
2023-02-19T00:00:45.281Z,0.00
2023-02-19T00:01:16.167Z,0.00
2023-02-19T00:01:47.100Z,0.00
2023-02-19T00:02:18.007Z,0.00
2023-02-19T00:02:48.928Z,0.00
2023-02-19T00:03:19.889Z,0.00
2023-02-19T00:03:50.950Z,0.00
2023-02-19T00:04:21.432Z,0.00
2023-02-19T00:04:52.384Z,0.00
2023-02-19T00:05:23.326Z,0.00
2023-02-19T00:05:54.266Z,0.00
2023-02-19T00:06:25.237Z,0.00
2023-02-19T00:06:56.148Z,0.00
2023-02-19T00:07:26.655Z,0.00
2023-02-19T00:07:57.602Z,0.00
2023-02-19T00:08:28.540Z,0.00
2023-02-19T00:08:59.458Z,0.00
2023-02-19T00:09:30.365Z,0.00
2023-02-19T00:10:01.333Z,0.00
2023-02-19T00:10:32.220Z,0.00
2023-02-19T00:11:03.183Z,0.00
2023-02-19T00:11:34.110Z,0.00
2023-02-19T00:12:05.019Z,0.00
2023-02-19T00:12:35.975Z,0.00
2023-02-19T00:13:06.865Z,0.00
2023-02-19T00:13:37.804Z,0.00
2023-02-19T00:14:08.740Z,0.00
2023-02-19T00:14:39.668Z,0.00
2023-02-19T00:15:10.576Z,0.00
2023-02-19T00:15:41.501Z,0.00
2023-02-19T00:16:12.430Z,0.00
2023-02-19T00:16:43.336Z,0.00
2023-02-19T00:17:14.243Z,0.00
2023-02-19T00:17:45.189Z,0.00
2023-02-19T00:18:16.079Z,0.00
2023-02-19T00:18:46.966Z,0.00
2023-02-19T00:19:17.877Z,0.00
2023-02-19T00:19:48.798Z,0.00
2023-02-19T00:20:19.715Z,0.00
2023-02-19T00:20:50.664Z,0.00
2023-02-19T00:21:21.588Z,0.00
2023-02-19T00:21:52.548Z,0.00
2023-02-19T00:22:23.436Z,0.00
2023-02-19T00:22:54.378Z,0.00
2023-02-19T00:23:25.293Z,0.00
2023-02-19T00:23:56.404Z,0.00
2023-02-19T00:24:26.860Z,0.00
2023-02-19T00:24:57.802Z,0.00
2023-02-19T00:25:28.721Z,0.00
2023-02-19T00:26:12.295Z,0.00
2023-02-19T00:26:30.470Z,0.00
2023-02-19T00:27:01.366Z,0.00
2023-02-19T00:27:32.302Z,0.00
2023-02-19T00:28:03.257Z,0.00
2023-02-19T00:28:34.160Z,0.00
2023-02-19T00:29:05.075Z,0.00
2023-02-19T00:29:35.976Z,0.00
2023-02-19T00:30:06.922Z,0.00
2023-02-19T00:30:37.825Z,0.00
2023-02-19T00:31:09.525Z,0.00
2023-02-19T00:31:39.853Z,0.00
2023-02-19T00:32:10.292Z,0.00
2023-02-19T00:32:41.205Z,0.00
2023-02-19T00:33:12.133Z,0.00
2023-02-19T00:33:43.080Z,0.00
2023-02-19T00:34:14.000Z,0.00
2023-02-19T00:34:44.912Z,0.00
2023-02-19T00:35:15.908Z,0.00
2023-02-19T00:36:17.710Z,0.00
2023-02-19T00:36:48.644Z,0.00
2023-02-19T00:37:19.583Z,0.00
2023-02-19T00:37:50.474Z,0.00
2023-02-19T00:38:21.362Z,0.00
2023-02-19T00:38:52.289Z,0.00
2023-02-19T00:39:23.208Z,0.00
2023-02-19T00:39:54.152Z,0.00
2023-02-19T00:40:25.080Z,0.00
2023-02-19T00:40:56.011Z,0.00
2023-02-19T00:41:26.930Z,0.00
2023-02-19T00:41:57.861Z,0.00
2023-02-19T00:42:28.786Z,0.00
2023-02-19T00:42:59.701Z,0.00
2023-02-19T00:43:30.624Z,0.00
2023-02-19T00:44:01.578Z,0.00
2023-02-19T00:44:32.494Z,0.00
2023-02-19T00:45:03.404Z,0.00
2023-02-19T00:45:34.335Z,0.00
2023-02-19T00:46:05.259Z,0.00
2023-02-19T00:46:36.321Z,0.00
2023-02-19T00:47:06.787Z,0.00
2023-02-19T00:47:39.407Z,0.00
2023-02-19T00:48:08.318Z,0.00
2023-02-19T00:48:39.252Z,0.00
2023-02-19T00:49:10.153Z,0.00
2023-02-19T00:49:41.035Z,0.00
2023-02-19T00:50:11.956Z,0.00
2023-02-19T00:50:42.869Z,0.00
2023-02-19T00:51:13.800Z,0.00
2023-02-19T00:51:44.755Z,0.00
2023-02-19T00:52:15.666Z,0.00
2023-02-19T00:52:46.605Z,0.00
2023-02-19T00:53:17.493Z,0.00
2023-02-19T00:53:48.421Z,0.00
2023-02-19T00:54:19.353Z,0.00
2023-02-19T00:54:50.280Z,0.00
2023-02-19T00:55:21.208Z,0.00
2023-02-19T00:55:52.124Z,0.00
2023-02-19T00:56:23.116Z,0.00
2023-02-19T00:56:54.067Z,0.00
2023-02-19T00:57:24.960Z,0.00
2023-02-19T00:57:55.854Z,0.00
2023-02-19T00:58:57.722Z,0.00
2023-02-19T00:59:28.652Z,0.00
2023-02-19T00:59:59.614Z,0.00
2023-02-19T01:00:30.503Z,0.00
2023-02-19T01:01:01.446Z,0.00
2023-02-19T01:01:32.435Z,0.00
2023-02-19T01:02:03.355Z,0.00
2023-02-19T01:02:34.291Z,0.00
2023-02-19T01:03:05.184Z,0.00
2023-02-19T01:03:36.131Z,0.00
2023-02-19T01:04:07.392Z,0.00
2023-02-19T01:04:37.856Z,0.00
2023-02-19T01:05:08.774Z,0.00
2023-02-19T01:05:39.691Z,0.00
2023-02-19T01:06:10.588Z,0.00
2023-02-19T01:06:41.500Z,0.00
2023-02-19T01:07:12.435Z,0.00
2023-02-19T01:07:43.371Z,0.00
2023-02-19T01:08:14.330Z,0.00
2023-02-19T01:08:45.224Z,0.00
2023-02-19T01:09:16.150Z,0.00
2023-02-19T01:09:47.090Z,0.00
2023-02-19T01:10:18.009Z,0.00
2023-02-19T01:10:48.945Z,0.00
2023-02-19T01:11:19.843Z,0.00
2023-02-19T01:11:50.785Z,0.00
2023-02-19T01:12:21.687Z,0.00
2023-02-19T01:12:52.611Z,0.00
2023-02-19T01:13:23.538Z,0.00
2023-02-19T01:13:54.471Z,0.00
2023-02-19T01:14:25.390Z,0.00
2023-02-19T01:14:56.329Z,0.00
2023-02-19T01:15:27.280Z,0.00
2023-02-19T01:15:58.257Z,0.00
2023-02-19T01:16:29.220Z,0.00
2023-02-19T01:17:00.205Z,0.00
2023-02-19T01:17:30.651Z,0.00
2023-02-19T01:18:01.558Z,0.00
2023-02-19T01:18:32.494Z,0.00
2023-02-19T01:19:03.446Z,0.00
2023-02-19T01:19:34.385Z,0.00
2023-02-19T01:20:05.278Z,0.00
2023-02-19T01:21:07.397Z,0.00
2023-02-19T01:21:37.954Z,0.00
2023-02-19T01:22:08.857Z,0.00
2023-02-19T01:22:39.780Z,0.00
2023-02-19T01:23:10.713Z,0.00
2023-02-19T01:23:41.637Z,0.00
2023-02-19T01:24:12.545Z,0.00
2023-02-19T01:24:43.472Z,0.00
2023-02-19T01:25:14.381Z,0.00
2023-02-19T01:25:45.284Z,0.00
2023-02-19T01:26:16.228Z,0.00
2023-02-19T01:26:47.165Z,0.00
2023-02-19T01:27:18.072Z,0.00
2023-02-19T01:27:49.012Z,0.00
2023-02-19T01:28:19.920Z,0.00
2023-02-19T01:28:50.888Z,0.00
2023-02-19T01:29:21.810Z,0.00
2023-02-19T01:29:52.734Z,0.00
2023-02-19T01:30:23.741Z,0.00
2023-02-19T01:30:54.836Z,0.00
2023-02-19T01:31:25.435Z,0.00
2023-02-19T01:31:55.987Z,0.00
2023-02-19T01:32:26.436Z,0.00
2023-02-19T01:32:57.381Z,0.00
2023-02-19T01:33:28.277Z,0.00
2023-02-19T01:33:59.276Z,0.00
2023-02-19T01:34:30.158Z,0.00
2023-02-19T01:35:01.107Z,0.00
2023-02-19T01:35:31.992Z,0.00
2023-02-19T01:36:02.908Z,0.00
2023-02-19T01:36:33.861Z,0.00
2023-02-19T01:37:04.784Z,0.00
2023-02-19T01:37:35.711Z,0.00
2023-02-19T01:38:37.655Z,0.00
2023-02-19T01:39:08.742Z,0.00
2023-02-19T01:39:39.131Z,0.00
2023-02-19T01:40:10.044Z,0.00
2023-02-19T01:40:40.960Z,0.00
2023-02-19T01:41:12.291Z,0.00
2023-02-19T01:41:42.808Z,0.00
2023-02-19T01:42:13.731Z,0.00
2023-02-19T01:42:44.632Z,0.00
2023-02-19T01:43:15.559Z,0.00
2023-02-19T01:43:46.484Z,0.00
2023-02-19T01:44:17.396Z,0.00
2023-02-19T01:44:48.277Z,0.00
2023-02-19T01:45:19.217Z,0.00
2023-02-19T01:45:50.144Z,0.00
2023-02-19T01:46:21.162Z,0.00
2023-02-19T01:46:51.666Z,0.00
2023-02-19T01:47:22.097Z,0.00
2023-02-19T01:47:53.009Z,0.00
2023-02-19T01:48:23.904Z,0.00
2023-02-19T01:48:54.812Z,0.00
2023-02-19T01:49:25.769Z,0.00
2023-02-19T01:49:56.698Z,0.00
2023-02-19T01:50:27.620Z,0.00
2023-02-19T01:50:58.676Z,0.00
2023-02-19T01:51:29.126Z,0.00
2023-02-19T01:52:00.050Z,0.00
2023-02-19T01:52:30.983Z,0.00
2023-02-19T01:53:01.898Z,0.00
2023-02-19T01:53:32.991Z,0.00
2023-02-19T01:54:03.400Z,0.00
2023-02-19T01:54:34.340Z,0.00
2023-02-19T01:55:05.254Z,0.00
2023-02-19T01:55:36.178Z,0.00
2023-02-19T01:56:37.579Z,0.00
2023-02-19T01:57:08.553Z,0.00
2023-02-19T01:57:39.454Z,0.00
2023-02-19T01:58:10.368Z,0.00
2023-02-19T01:58:41.278Z,0.00
2023-02-19T01:59:12.178Z,0.00
2023-02-19T01:59:43.067Z,0.00
2023-02-19T02:00:13.962Z,0.00
2023-02-19T02:00:44.925Z,0.00
2023-02-19T02:01:15.916Z,0.00
2023-02-19T02:01:46.845Z,0.00
2023-02-19T02:02:17.843Z,0.00
2023-02-19T02:02:48.746Z,0.00
2023-02-19T02:03:19.654Z,0.00
2023-02-19T02:03:50.592Z,0.00
2023-02-19T02:04:21.529Z,0.00
2023-02-19T02:04:52.445Z,0.00
2023-02-19T02:05:23.393Z,0.00
2023-02-19T02:05:54.324Z,0.00
2023-02-19T02:06:25.240Z,0.00
2023-02-19T02:06:56.170Z,0.00
2023-02-19T02:07:27.104Z,0.00
2023-02-19T02:07:58.070Z,0.00
2023-02-19T02:08:28.973Z,0.00
2023-02-19T02:08:59.458Z,0.00
2023-02-19T02:09:30.385Z,0.00
2023-02-19T02:10:01.335Z,0.00
2023-02-19T02:10:32.279Z,0.00
2023-02-19T02:11:03.168Z,0.00
2023-02-19T02:11:34.095Z,0.00
2023-02-19T02:12:05.035Z,0.00
2023-02-19T02:12:35.973Z,0.00
2023-02-19T02:13:06.874Z,0.00
2023-02-19T02:13:37.793Z,0.00
2023-02-19T02:14:08.729Z,0.00
2023-02-19T02:14:39.688Z,0.00
2023-02-19T02:15:10.631Z,0.00
2023-02-19T02:15:41.556Z,0.00
2023-02-19T02:16:12.509Z,0.00
2023-02-19T02:16:43.431Z,0.00
2023-02-19T02:17:14.359Z,0.00
2023-02-19T02:17:45.266Z,0.00
2023-02-19T02:18:16.181Z,0.00
2023-02-19T02:18:47.110Z,0.00
2023-02-19T02:19:18.038Z,0.00
2023-02-19T02:19:48.937Z,0.00
2023-02-19T02:20:19.854Z,0.00
2023-02-19T02:20:50.797Z,0.00
2023-02-19T02:21:21.778Z,0.00
2023-02-19T02:21:52.663Z,0.00
2023-02-19T02:22:23.550Z,0.00
2023-02-19T02:22:54.491Z,0.00
2023-02-19T02:23:25.404Z,0.00
2023-02-19T02:23:56.416Z,0.00
2023-02-19T02:24:26.854Z,0.00
2023-02-19T02:24:57.818Z,0.00
2023-02-19T02:25:28.771Z,0.00
2023-02-19T02:25:59.701Z,0.00
2023-02-19T02:26:30.618Z,0.00
2023-02-19T02:27:01.514Z,0.00
2023-02-19T02:27:32.420Z,0.00
2023-02-19T02:28:03.344Z,0.00
2023-02-19T02:28:34.265Z,0.00
2023-02-19T02:29:05.182Z,0.00
2023-02-19T02:29:36.077Z,0.00
2023-02-19T02:30:07.034Z,0.00
2023-02-19T02:30:37.975Z,0.00
2023-02-19T02:31:09.340Z,0.00
2023-02-19T02:31:39.670Z,0.00
2023-02-19T02:32:10.301Z,0.00
2023-02-19T02:32:40.751Z,0.00
2023-02-19T02:33:11.713Z,0.00
2023-02-19T02:33:42.629Z,0.00
2023-02-19T02:34:13.540Z,0.00
2023-02-19T02:34:44.462Z,0.00
2023-02-19T02:35:15.387Z,0.00
2023-02-19T02:35:46.318Z,0.00
2023-02-19T02:36:17.226Z,0.00
2023-02-19T02:36:48.133Z,0.00
2023-02-19T02:37:19.062Z,0.00
2023-02-19T02:37:49.990Z,0.00
2023-02-19T02:38:20.908Z,0.00
2023-02-19T02:38:51.838Z,0.00
2023-02-19T02:39:22.750Z,0.00
2023-02-19T02:39:53.654Z,0.00
2023-02-19T02:40:24.586Z,0.00
2023-02-19T02:41:26.455Z,0.00
2023-02-19T02:41:57.340Z,0.00
2023-02-19T02:42:28.252Z,0.00
2023-02-19T02:42:59.931Z,0.00
2023-02-19T02:43:29.891Z,0.00
2023-02-19T02:44:00.802Z,0.00
2023-02-19T02:44:31.718Z,0.00
2023-02-19T02:45:02.634Z,0.00
2023-02-19T02:45:33.595Z,0.00
2023-02-19T02:46:04.555Z,0.00
2023-02-19T02:46:35.499Z,0.00
2023-02-19T02:47:06.430Z,0.00
2023-02-19T02:47:37.326Z,0.00
2023-02-19T02:48:08.257Z,0.00
2023-02-19T02:48:39.188Z,0.00
2023-02-19T02:49:10.101Z,0.00
2023-02-19T02:49:41.054Z,0.00
2023-02-19T02:50:12.003Z,0.00
2023-02-19T02:50:43.926Z,0.00
2023-02-19T02:51:13.852Z,0.00
2023-02-19T02:51:44.778Z,0.00
2023-02-19T02:52:15.689Z,0.00
2023-02-19T02:52:46.599Z,0.00
2023-02-19T02:53:17.510Z,0.00
2023-02-19T02:53:48.437Z,0.00
2023-02-19T02:54:19.351Z,0.00
2023-02-19T02:54:50.280Z,0.00
2023-02-19T02:55:21.195Z,0.00
2023-02-19T02:55:52.084Z,0.00
2023-02-19T02:56:22.999Z,0.00
2023-02-19T02:56:53.900Z,0.00
2023-02-19T02:57:24.832Z,0.00
2023-02-19T02:57:55.752Z,0.00
2023-02-19T02:58:57.648Z,0.00
2023-02-19T02:59:28.572Z,0.00
2023-02-19T02:59:59.497Z,0.00
2023-02-19T03:00:30.436Z,0.00
2023-02-19T03:01:01.366Z,0.00
2023-02-19T03:01:32.254Z,0.00
2023-02-19T03:02:03.197Z,0.00
2023-02-19T03:02:34.146Z,0.00
2023-02-19T03:03:05.088Z,0.00
2023-02-19T03:03:36.025Z,0.00
2023-02-19T03:04:06.927Z,0.00
2023-02-19T03:04:37.871Z,0.00
2023-02-19T03:05:08.764Z,0.00
2023-02-19T03:05:39.677Z,0.00
2023-02-19T03:06:10.598Z,0.00
2023-02-19T03:06:41.522Z,0.00
2023-02-19T03:07:12.453Z,0.00
2023-02-19T03:07:43.361Z,0.00
2023-02-19T03:08:14.295Z,0.00
2023-02-19T03:08:45.204Z,0.00
2023-02-19T03:09:16.135Z,0.00
2023-02-19T03:09:49.403Z,0.00
2023-02-19T03:10:17.560Z,0.00
2023-02-19T03:10:48.455Z,0.00
2023-02-19T03:11:19.405Z,0.00
2023-02-19T03:11:50.323Z,0.00
2023-02-19T03:12:21.237Z,0.00
2023-02-19T03:12:52.152Z,0.00
2023-02-19T03:13:23.061Z,0.00
2023-02-19T03:13:53.966Z,0.00
2023-02-19T03:14:24.901Z,0.00
2023-02-19T03:14:55.792Z,0.00
2023-02-19T03:15:26.711Z,0.00
2023-02-19T03:15:57.669Z,0.00
2023-02-19T03:16:28.668Z,0.00
2023-02-19T03:16:59.580Z,0.00
2023-02-19T03:17:30.504Z,0.00
2023-02-19T03:18:01.416Z,0.00
2023-02-19T03:18:32.350Z,0.00
2023-02-19T03:19:03.234Z,0.00
2023-02-19T03:19:34.171Z,0.00
2023-02-19T03:20:05.116Z,0.00
2023-02-19T03:20:36.011Z,0.00
2023-02-19T03:21:06.939Z,0.00
2023-02-19T03:21:37.847Z,0.00
2023-02-19T03:22:08.777Z,0.00
2023-02-19T03:22:39.745Z,0.00
2023-02-19T03:23:10.663Z,0.00
2023-02-19T03:23:41.586Z,0.00
2023-02-19T03:24:12.508Z,0.00
2023-02-19T03:24:43.425Z,0.00
2023-02-19T03:25:14.373Z,0.00
2023-02-19T03:25:45.303Z,0.00
2023-02-19T03:26:16.220Z,0.00
2023-02-19T03:26:47.130Z,0.00
2023-02-19T03:27:18.060Z,0.00
2023-02-19T03:27:49.003Z,0.00
2023-02-19T03:28:19.920Z,0.00
2023-02-19T03:28:50.830Z,0.00
2023-02-19T03:29:21.761Z,0.00
2023-02-19T03:29:52.674Z,0.00
2023-02-19T03:30:23.634Z,0.00
2023-02-19T03:30:54.570Z,0.00
2023-02-19T03:31:25.608Z,0.00
2023-02-19T03:31:56.162Z,0.00
2023-02-19T03:32:26.646Z,0.00
2023-02-19T03:32:57.560Z,0.00
2023-02-19T03:33:28.446Z,0.00
2023-02-19T03:33:59.338Z,0.00
2023-02-19T03:34:30.266Z,0.00
2023-02-19T03:35:01.220Z,0.00
2023-02-19T03:35:32.150Z,0.00
2023-02-19T03:36:03.060Z,0.00
2023-02-19T03:36:33.977Z,0.00
2023-02-19T03:37:04.945Z,0.00
2023-02-19T03:37:35.888Z,0.00
2023-02-19T03:38:06.778Z,0.00
2023-02-19T03:38:37.697Z,0.00
2023-02-19T03:39:08.618Z,0.00
2023-02-19T03:39:39.531Z,0.00
2023-02-19T03:40:10.471Z,0.00
2023-02-19T03:40:41.393Z,0.00
2023-02-19T03:41:12.493Z,0.00
2023-02-19T03:41:42.974Z,0.00
2023-02-19T03:42:13.877Z,0.00
2023-02-19T03:42:44.829Z,0.00
2023-02-19T03:43:15.786Z,0.00
2023-02-19T03:43:46.703Z,0.00
2023-02-19T03:44:17.641Z,0.00
2023-02-19T03:44:48.588Z,0.00
2023-02-19T03:45:19.481Z,0.00
2023-02-19T03:45:50.410Z,0.00
2023-02-19T03:46:21.326Z,0.00
2023-02-19T03:46:52.292Z,0.00
2023-02-19T03:47:23.200Z,0.00
2023-02-19T03:47:54.108Z,0.00
2023-02-19T03:48:25.030Z,0.00
2023-02-19T03:48:55.975Z,0.00
2023-02-19T03:49:26.895Z,0.00
2023-02-19T03:49:57.801Z,0.00
2023-02-19T03:50:28.692Z,0.00
2023-02-19T03:50:59.643Z,0.00
2023-02-19T03:51:30.564Z,0.00
2023-02-19T03:52:01.513Z,0.00
2023-02-19T03:52:32.418Z,0.00
2023-02-19T03:53:03.322Z,0.00
2023-02-19T03:53:34.245Z,0.00
2023-02-19T03:54:05.146Z,0.00
2023-02-19T03:54:36.054Z,0.00
2023-02-19T03:55:06.952Z,0.00
2023-02-19T03:55:37.850Z,0.00
2023-02-19T03:56:08.751Z,0.00
2023-02-19T03:56:39.731Z,0.00
2023-02-19T03:57:10.648Z,0.00
2023-02-19T03:57:41.585Z,0.00
2023-02-19T03:58:12.529Z,0.00
2023-02-19T03:58:43.450Z,0.00
2023-02-19T03:59:14.378Z,0.00
2023-02-19T03:59:45.289Z,0.00
2023-02-19T04:00:16.210Z,0.00
2023-02-19T04:00:47.114Z,0.00
2023-02-19T04:01:18.044Z,0.00
2023-02-19T04:01:48.963Z,0.00
2023-02-19T04:02:19.936Z,0.00
2023-02-19T04:02:50.383Z,0.00
2023-02-19T04:03:21.270Z,0.00
2023-02-19T04:03:52.306Z,0.00
2023-02-19T04:04:23.281Z,0.00
2023-02-19T04:04:54.237Z,0.00
2023-02-19T04:05:25.200Z,0.00
2023-02-19T04:05:56.128Z,0.00
2023-02-19T04:06:27.062Z,0.00
2023-02-19T04:06:57.959Z,0.00
2023-02-19T04:07:28.872Z,0.00
2023-02-19T04:07:59.781Z,0.00
2023-02-19T04:08:30.712Z,0.00
2023-02-19T04:09:01.602Z,0.00
2023-02-19T04:09:32.505Z,0.00
2023-02-19T04:10:03.492Z,0.00
2023-02-19T04:10:34.386Z,0.00
2023-02-19T04:11:05.297Z,0.00
2023-02-19T04:11:36.202Z,0.00
2023-02-19T04:12:07.141Z,0.00
2023-02-19T04:12:38.028Z,0.00
2023-02-19T04:13:08.953Z,0.00
2023-02-19T04:13:39.865Z,0.00
2023-02-19T04:14:10.819Z,0.00
2023-02-19T04:14:41.741Z,0.00
2023-02-19T04:15:12.656Z,0.00
2023-02-19T04:15:43.577Z,0.00
2023-02-19T04:16:14.522Z,0.00
2023-02-19T04:16:45.536Z,0.00
2023-02-19T04:17:15.981Z,0.00
2023-02-19T04:17:46.902Z,0.00
2023-02-19T04:18:17.840Z,0.00
2023-02-19T04:18:48.758Z,0.00
2023-02-19T04:19:19.686Z,0.00
2023-02-19T04:19:50.586Z,0.00
2023-02-19T04:20:21.494Z,0.00
2023-02-19T04:20:52.484Z,0.00
2023-02-19T04:21:23.391Z,0.00
2023-02-19T04:21:54.305Z,0.00
2023-02-19T04:22:25.243Z,0.00
2023-02-19T04:23:27.131Z,0.00
2023-02-19T04:23:58.038Z,0.00
2023-02-19T04:24:28.946Z,0.00
2023-02-19T04:24:59.893Z,0.00
2023-02-19T04:25:30.805Z,0.00
2023-02-19T04:26:01.854Z,0.00
2023-02-19T04:26:32.279Z,0.00
2023-02-19T04:27:03.209Z,0.00
2023-02-19T04:27:34.148Z,0.00
2023-02-19T04:28:05.061Z,0.00
2023-02-19T04:28:35.982Z,0.00
2023-02-19T04:29:06.914Z,0.00
2023-02-19T04:29:39.261Z,0.00
2023-02-19T04:30:08.869Z,0.00
2023-02-19T04:30:39.950Z,0.00
2023-02-19T04:31:10.765Z,0.00
2023-02-19T04:31:41.390Z,0.00
2023-02-19T04:32:12.316Z,0.00
2023-02-19T04:32:43.213Z,0.00
2023-02-19T04:33:14.115Z,0.00
2023-02-19T04:33:45.036Z,0.00
2023-02-19T04:34:15.948Z,0.00
2023-02-19T04:34:46.867Z,0.00
2023-02-19T04:35:17.786Z,0.00
2023-02-19T04:35:48.681Z,0.00
2023-02-19T04:36:19.589Z,0.00
2023-02-19T04:36:50.504Z,0.00
2023-02-19T04:37:21.439Z,0.00
2023-02-19T04:37:52.366Z,0.00
2023-02-19T04:38:23.280Z,0.00
2023-02-19T04:38:54.203Z,0.00
2023-02-19T04:39:25.112Z,0.00
2023-02-19T04:39:56.033Z,0.00
2023-02-19T04:40:57.896Z,0.00
2023-02-19T04:41:28.804Z,0.00
2023-02-19T04:41:59.735Z,0.00
2023-02-19T04:42:30.660Z,0.00
2023-02-19T04:43:01.599Z,0.00
2023-02-19T04:43:32.526Z,0.00
2023-02-19T04:44:03.433Z,0.00
2023-02-19T04:44:34.349Z,0.00
2023-02-19T04:45:05.298Z,0.00
2023-02-19T04:45:36.225Z,0.00
2023-02-19T04:46:07.208Z,0.00
2023-02-19T04:46:38.140Z,0.00
2023-02-19T04:47:09.055Z,0.00
2023-02-19T04:47:39.957Z,0.00
2023-02-19T04:48:10.838Z,0.00
2023-02-19T04:48:41.744Z,0.00
2023-02-19T04:49:12.706Z,0.00
2023-02-19T04:49:43.642Z,0.00
2023-02-19T04:50:14.571Z,0.00
2023-02-19T04:50:45.498Z,0.00
2023-02-19T04:51:16.444Z,0.00
2023-02-19T04:51:47.354Z,0.00
2023-02-19T04:52:18.255Z,0.00
2023-02-19T04:52:49.193Z,0.00
2023-02-19T04:53:20.123Z,0.00
2023-02-19T04:53:51.019Z,0.00
2023-02-19T04:54:21.925Z,0.00
2023-02-19T04:54:52.834Z,0.00
2023-02-19T04:55:23.962Z,0.00
2023-02-19T04:55:54.429Z,0.00
2023-02-19T04:56:25.339Z,0.00
2023-02-19T04:56:56.274Z,0.00
2023-02-19T04:57:27.197Z,0.00
2023-02-19T04:57:58.156Z,0.00
2023-02-19T04:58:29.064Z,0.00
2023-02-19T04:59:00.011Z,0.00
2023-02-19T04:59:30.911Z,0.00
2023-02-19T05:00:01.823Z,0.00
2023-02-19T05:00:32.769Z,0.00
2023-02-19T05:01:03.285Z,0.00
2023-02-19T05:01:34.214Z,0.00
2023-02-19T05:02:05.145Z,0.00
2023-02-19T05:02:36.055Z,0.00
2023-02-19T05:03:06.956Z,0.00
2023-02-19T05:03:37.917Z,0.00
2023-02-19T05:04:08.897Z,0.00
2023-02-19T05:04:39.850Z,0.00
2023-02-19T05:05:10.771Z,0.00
2023-02-19T05:05:41.681Z,0.00
2023-02-19T05:06:12.657Z,0.00
2023-02-19T05:06:43.548Z,0.00
2023-02-19T05:07:14.472Z,0.00
2023-02-19T05:07:45.376Z,0.00
2023-02-19T05:08:16.313Z,0.00
2023-02-19T05:08:47.248Z,0.00
2023-02-19T05:09:18.189Z,0.00
2023-02-19T05:09:49.118Z,0.00
2023-02-19T05:10:20.037Z,0.00
2023-02-19T05:10:50.937Z,0.00
2023-02-19T05:11:21.856Z,0.00
2023-02-19T05:11:52.783Z,0.00
2023-02-19T05:12:23.702Z,0.00
2023-02-19T05:12:56.808Z,0.00
2023-02-19T05:13:25.214Z,0.00
2023-02-19T05:13:56.122Z,0.00
2023-02-19T05:14:27.054Z,0.00
2023-02-19T05:14:57.970Z,0.00
2023-02-19T05:15:28.916Z,0.00
2023-02-19T05:15:59.959Z,0.00
2023-02-19T05:16:30.391Z,0.00
2023-02-19T05:17:01.303Z,0.00
2023-02-19T05:17:32.193Z,0.00
2023-02-19T05:18:03.097Z,0.00
2023-02-19T05:18:33.983Z,0.00
2023-02-19T05:19:04.865Z,0.00
2023-02-19T05:19:35.796Z,0.00
2023-02-19T05:20:06.809Z,0.00
2023-02-19T05:20:37.713Z,0.00
2023-02-19T05:21:08.883Z,0.00
2023-02-19T05:21:39.463Z,0.00
2023-02-19T05:22:10.394Z,0.00
2023-02-19T05:22:41.322Z,0.00
2023-02-19T05:23:12.225Z,0.00
2023-02-19T05:23:43.177Z,0.00
2023-02-19T05:24:14.084Z,0.00
2023-02-19T05:24:45.009Z,0.00
2023-02-19T05:25:46.853Z,0.00
2023-02-19T05:26:17.799Z,0.00
2023-02-19T05:26:48.719Z,0.00
2023-02-19T05:27:19.631Z,0.00
2023-02-19T05:27:50.549Z,0.00
2023-02-19T05:28:21.472Z,0.00
2023-02-19T05:28:52.403Z,0.00
2023-02-19T05:29:23.344Z,0.00
2023-02-19T05:29:54.262Z,0.00
2023-02-19T05:30:25.301Z,0.00
2023-02-19T05:30:55.804Z,0.00
2023-02-19T05:31:26.391Z,0.00
2023-02-19T05:31:56.868Z,0.00
2023-02-19T05:32:27.772Z,0.00
2023-02-19T05:32:58.680Z,0.00
2023-02-19T05:33:29.616Z,0.00
2023-02-19T05:34:00.978Z,0.00
2023-02-19T05:34:31.397Z,0.00
2023-02-19T05:35:02.313Z,0.00
2023-02-19T05:35:33.217Z,0.00
2023-02-19T05:36:04.298Z,0.00
2023-02-19T05:36:34.734Z,0.00
2023-02-19T05:37:05.642Z,0.00
2023-02-19T05:37:36.550Z,0.00
2023-02-19T05:38:07.463Z,0.00
2023-02-19T05:38:38.404Z,0.00
2023-02-19T05:39:09.297Z,0.00
2023-02-19T05:39:42.624Z,0.00
2023-02-19T05:40:11.001Z,0.00
2023-02-19T05:40:41.907Z,0.00
2023-02-19T05:41:13.141Z,0.00
2023-02-19T05:41:43.580Z,0.00
2023-02-19T05:42:14.549Z,0.00
2023-02-19T05:42:45.470Z,0.00
2023-02-19T05:43:16.416Z,0.00
2023-02-19T05:43:47.313Z,0.00
2023-02-19T05:44:18.256Z,0.00
2023-02-19T05:44:49.178Z,0.00
2023-02-19T05:45:20.110Z,0.00
2023-02-19T05:45:51.024Z,0.00
2023-02-19T05:46:22.019Z,0.00
2023-02-19T05:46:52.930Z,0.00
2023-02-19T05:47:23.866Z,0.00
2023-02-19T05:47:54.778Z,0.00
2023-02-19T05:48:25.689Z,0.00
2023-02-19T05:48:56.624Z,0.00
2023-02-19T05:49:27.550Z,0.00
2023-02-19T05:49:58.438Z,0.00
2023-02-19T05:50:29.370Z,0.00
2023-02-19T05:51:00.287Z,0.00
2023-02-19T05:51:31.229Z,0.00
2023-02-19T05:52:02.155Z,0.00
2023-02-19T05:52:33.047Z,0.00
2023-02-19T05:53:03.946Z,0.00
2023-02-19T05:53:34.878Z,0.00
2023-02-19T05:54:05.801Z,0.00
2023-02-19T05:54:36.698Z,0.00
2023-02-19T05:55:07.628Z,0.00
2023-02-19T05:55:38.561Z,0.00
2023-02-19T05:56:09.501Z,0.00
2023-02-19T05:56:40.448Z,0.00
2023-02-19T05:57:11.391Z,0.00
2023-02-19T05:57:43.607Z,1.00
2023-02-19T05:58:13.229Z,0.00
2023-02-19T05:58:44.115Z,1.00
2023-02-19T05:59:15.001Z,1.00
2023-02-19T05:59:45.862Z,1.00
2023-02-19T06:00:16.737Z,2.00
2023-02-19T06:00:47.655Z,0.00
2023-02-19T06:01:18.557Z,0.00
2023-02-19T06:01:49.448Z,0.00
2023-02-19T06:02:20.402Z,2.00
2023-02-19T06:02:51.331Z,2.00
2023-02-19T06:03:22.232Z,2.00
2023-02-19T06:03:56.033Z,0.00
2023-02-19T06:04:24.026Z,2.00
2023-02-19T06:04:54.879Z,2.00
2023-02-19T06:05:25.747Z,2.00
2023-02-19T06:06:27.484Z,3.00
2023-02-19T06:06:58.321Z,3.00
2023-02-19T06:07:29.188Z,3.00
2023-02-19T06:08:00.104Z,2.00
2023-02-19T06:08:30.943Z,2.00
2023-02-19T06:09:01.800Z,5.00
2023-02-19T06:09:32.708Z,7.00
2023-02-19T06:10:03.585Z,3.00
2023-02-19T06:10:34.437Z,6.00
2023-02-19T06:11:05.308Z,6.00
2023-02-19T06:11:36.154Z,11.00
2023-02-19T06:12:07.025Z,10.00
2023-02-19T06:12:37.918Z,11.00
2023-02-19T06:13:08.786Z,10.00
2023-02-19T06:13:39.652Z,10.00
2023-02-19T06:14:10.518Z,11.00
2023-02-19T06:14:41.387Z,11.00
2023-02-19T06:15:12.369Z,14.00
2023-02-19T06:15:43.246Z,17.00
2023-02-19T06:16:14.180Z,17.00
2023-02-19T06:16:45.073Z,17.00
2023-02-19T06:17:15.927Z,15.00
2023-02-19T06:17:46.816Z,17.00
2023-02-19T06:18:17.726Z,18.00
2023-02-19T06:18:48.606Z,19.00
2023-02-19T06:19:19.481Z,18.00
2023-02-19T06:19:50.358Z,15.00
2023-02-19T06:20:21.281Z,21.00
2023-02-19T06:20:52.143Z,20.00
2023-02-19T06:21:23.005Z,20.00
2023-02-19T06:21:53.881Z,19.00
2023-02-19T06:22:24.782Z,18.00
2023-02-19T06:22:55.645Z,17.00
2023-02-19T06:23:57.363Z,21.00
2023-02-19T06:24:28.253Z,21.00
2023-02-19T06:24:59.231Z,25.00
2023-02-19T06:25:30.078Z,24.00
2023-02-19T06:26:00.943Z,31.00
2023-02-19T06:26:31.819Z,34.00
2023-02-19T06:27:02.693Z,33.00
2023-02-19T06:27:33.554Z,33.00
2023-02-19T06:28:04.428Z,28.00
2023-02-19T06:28:35.278Z,27.00
2023-02-19T06:29:06.155Z,25.00
2023-02-19T06:29:37.036Z,33.00
2023-02-19T06:30:07.945Z,38.00
2023-02-19T06:30:38.814Z,34.00
2023-02-19T06:31:10.076Z,48.00
2023-02-19T06:31:40.704Z,41.00
2023-02-19T06:32:11.284Z,41.00
2023-02-19T06:32:41.677Z,42.00
2023-02-19T06:33:12.628Z,47.00
2023-02-19T06:33:43.482Z,43.00
2023-02-19T06:34:14.372Z,41.00
2023-02-19T06:34:45.279Z,34.00
2023-02-19T06:35:16.183Z,42.00
2023-02-19T06:35:47.021Z,43.00
2023-02-19T06:36:18.038Z,39.00
2023-02-19T06:36:48.382Z,40.00
2023-02-19T06:37:19.335Z,36.00
2023-02-19T06:37:50.196Z,28.00
2023-02-19T06:38:21.114Z,40.00
2023-02-19T06:38:51.982Z,54.00
2023-02-19T06:39:22.869Z,52.00
2023-02-19T06:39:53.742Z,40.00
2023-02-19T06:40:24.631Z,51.00
2023-02-19T06:40:55.499Z,54.00
2023-02-19T06:41:26.372Z,48.00
2023-02-19T06:41:57.254Z,40.00
2023-02-19T06:42:28.109Z,50.00
2023-02-19T06:42:58.972Z,53.00
2023-02-19T06:43:29.850Z,44.00
2023-02-19T06:44:00.744Z,41.00
2023-02-19T06:44:31.611Z,57.00
2023-02-19T06:45:02.494Z,47.00
2023-02-19T06:45:33.353Z,43.00
2023-02-19T06:46:04.203Z,48.00
2023-02-19T06:46:35.132Z,46.00
2023-02-19T06:47:05.982Z,42.00
2023-02-19T06:47:36.849Z,37.00
2023-02-19T06:48:07.720Z,56.00
2023-02-19T06:48:39.531Z,51.00
2023-02-19T06:49:09.393Z,58.00
2023-02-19T06:49:40.249Z,55.00
2023-02-19T06:50:11.097Z,63.00
2023-02-19T06:50:41.967Z,70.00
2023-02-19T06:51:12.977Z,70.00
2023-02-19T06:51:43.456Z,57.00
2023-02-19T06:52:14.319Z,65.00
2023-02-19T06:52:45.173Z,63.00
2023-02-19T06:53:16.035Z,66.00
2023-02-19T06:53:46.892Z,73.00
2023-02-19T06:54:17.739Z,76.00
2023-02-19T06:54:48.616Z,63.00
2023-02-19T06:55:19.486Z,64.00
2023-02-19T06:55:50.353Z,86.00